sensor_id;sensor_type;location;lat;lon;timestamp;P1;durP1;ratioP1;P2;durP2;ratioP2
60851;SDS011;48553;50.766;2.900;2023-04-15T00:02:29;4.97;;;1.38;;
60851;SDS011;48553;50.766;2.900;2023-04-15T00:05:30;2.05;;;1.17;;
60851;SDS011;48553;50.766;2.900;2023-04-15T00:08:31;5.18;;;1.48;;
60851;SDS011;48553;50.766;2.900;2023-04-15T00:11:32;4.47;;;1.40;;
60851;SDS011;48553;50.766;2.900;2023-04-15T00:14:33;2.92;;;1.65;;
60851;SDS011;48553;50.766;2.900;2023-04-15T00:17:35;5.30;;;1.50;;
60851;SDS011;48553;50.766;2.900;2023-04-15T00:20:38;2.17;;;1.40;;
60851;SDS011;48553;50.766;2.900;2023-04-15T00:23:38;2.92;;;1.60;;
60851;SDS011;48553;50.766;2.900;2023-04-15T00:26:38;5.90;;;1.98;;
60851;SDS011;48553;50.766;2.900;2023-04-15T00:29:39;4.25;;;1.58;;
60851;SDS011;48553;50.766;2.900;2023-04-15T00:32:39;4.40;;;1.70;;
60851;SDS011;48553;50.766;2.900;2023-04-15T00:35:41;4.72;;;2.13;;
60851;SDS011;48553;50.766;2.900;2023-04-15T00:38:41;6.28;;;1.85;;
60851;SDS011;48553;50.766;2.900;2023-04-15T00:41:42;4.90;;;2.00;;
60851;SDS011;48553;50.766;2.900;2023-04-15T00:44:44;5.60;;;2.13;;
60851;SDS011;48553;50.766;2.900;2023-04-15T00:47:45;3.47;;;1.90;;
60851;SDS011;48553;50.766;2.900;2023-04-15T00:50:45;3.60;;;2.05;;
60851;SDS011;48553;50.766;2.900;2023-04-15T00:53:46;5.03;;;2.13;;
60851;SDS011;48553;50.766;2.900;2023-04-15T00:56:46;4.75;;;1.88;;
60851;SDS011;48553;50.766;2.900;2023-04-15T00:59:47;5.65;;;2.17;;
60851;SDS011;48553;50.766;2.900;2023-04-15T01:02:48;4.00;;;2.38;;
60851;SDS011;48553;50.766;2.900;2023-04-15T01:05:50;4.60;;;2.17;;
60851;SDS011;48553;50.766;2.900;2023-04-15T01:08:57;3.45;;;2.10;;
60851;SDS011;48553;50.766;2.900;2023-04-15T01:11:58;5.00;;;2.03;;
60851;SDS011;48553;50.766;2.900;2023-04-15T01:14:59;6.35;;;2.22;;
60851;SDS011;48553;50.766;2.900;2023-04-15T01:18:01;5.10;;;2.22;;
60851;SDS011;48553;50.766;2.900;2023-04-15T01:21:02;4.72;;;2.10;;
60851;SDS011;48553;50.766;2.900;2023-04-15T01:24:05;7.95;;;2.17;;
60851;SDS011;48553;50.766;2.900;2023-04-15T01:27:09;5.18;;;2.03;;
60851;SDS011;48553;50.766;2.900;2023-04-15T01:30:10;4.93;;;1.80;;
60851;SDS011;48553;50.766;2.900;2023-04-15T01:33:11;5.30;;;2.30;;
60851;SDS011;48553;50.766;2.900;2023-04-15T01:36:11;5.53;;;1.95;;
60851;SDS011;48553;50.766;2.900;2023-04-15T01:39:12;4.13;;;1.98;;
60851;SDS011;48553;50.766;2.900;2023-04-15T01:42:12;3.90;;;1.90;;
60851;SDS011;48553;50.766;2.900;2023-04-15T01:45:12;5.82;;;1.95;;
60851;SDS011;48553;50.766;2.900;2023-04-15T01:48:13;4.13;;;1.90;;
60851;SDS011;48553;50.766;2.900;2023-04-15T01:51:13;4.00;;;1.90;;
60851;SDS011;48553;50.766;2.900;2023-04-15T01:54:14;2.90;;;1.73;;
60851;SDS011;48553;50.766;2.900;2023-04-15T01:57:15;6.03;;;2.00;;
60851;SDS011;48553;50.766;2.900;2023-04-15T02:00:15;5.13;;;1.75;;
60851;SDS011;48553;50.766;2.900;2023-04-15T02:03:16;6.72;;;2.00;;
60851;SDS011;48553;50.766;2.900;2023-04-15T02:06:18;4.32;;;2.10;;
60851;SDS011;48553;50.766;2.900;2023-04-15T02:09:18;4.95;;;2.10;;
60851;SDS011;48553;50.766;2.900;2023-04-15T02:12:18;5.68;;;2.30;;
60851;SDS011;48553;50.766;2.900;2023-04-15T02:15:19;4.95;;;2.25;;
60851;SDS011;48553;50.766;2.900;2023-04-15T02:18:19;4.75;;;2.30;;
60851;SDS011;48553;50.766;2.900;2023-04-15T02:21:20;7.18;;;2.35;;
60851;SDS011;48553;50.766;2.900;2023-04-15T02:24:21;5.38;;;2.70;;
60851;SDS011;48553;50.766;2.900;2023-04-15T02:27:21;4.80;;;2.88;;
60851;SDS011;48553;50.766;2.900;2023-04-15T02:30:22;6.22;;;3.08;;
60851;SDS011;48553;50.766;2.900;2023-04-15T02:33:24;7.53;;;3.08;;
60851;SDS011;48553;50.766;2.900;2023-04-15T02:39:29;5.72;;;3.00;;
60851;SDS011;48553;50.766;2.900;2023-04-15T02:42:30;5.10;;;3.00;;
60851;SDS011;48553;50.766;2.900;2023-04-15T02:45:30;7.72;;;3.13;;
60851;SDS011;48553;50.766;2.900;2023-04-15T02:48:31;5.57;;;3.20;;
60851;SDS011;48553;50.766;2.900;2023-04-15T02:51:32;6.32;;;2.90;;
60851;SDS011;48553;50.766;2.900;2023-04-15T02:54:32;5.35;;;3.08;;
60851;SDS011;48553;50.766;2.900;2023-04-15T02:57:33;6.65;;;3.20;;
60851;SDS011;48553;50.766;2.900;2023-04-15T03:00:36;6.20;;;3.20;;
60851;SDS011;48553;50.766;2.900;2023-04-15T03:03:36;6.68;;;3.40;;
60851;SDS011;48553;50.766;2.900;2023-04-15T03:06:37;7.28;;;3.45;;
60851;SDS011;48553;50.766;2.900;2023-04-15T03:09:37;5.57;;;2.97;;
60851;SDS011;48553;50.766;2.900;2023-04-15T03:12:40;4.40;;;2.83;;
60851;SDS011;48553;50.766;2.900;2023-04-15T03:15:40;4.95;;;2.63;;
60851;SDS011;48553;50.766;2.900;2023-04-15T03:18:41;6.07;;;2.70;;
60851;SDS011;48553;50.766;2.900;2023-04-15T03:21:41;4.55;;;2.20;;
60851;SDS011;48553;50.766;2.900;2023-04-15T03:24:41;6.40;;;2.38;;
60851;SDS011;48553;50.766;2.900;2023-04-15T03:27:42;8.13;;;2.50;;
60851;SDS011;48553;50.766;2.900;2023-04-15T03:30:42;3.92;;;2.17;;
60851;SDS011;48553;50.766;2.900;2023-04-15T03:33:42;4.72;;;2.20;;
60851;SDS011;48553;50.766;2.900;2023-04-15T03:36:43;3.72;;;1.85;;
60851;SDS011;48553;50.766;2.900;2023-04-15T03:39:43;7.88;;;2.00;;
60851;SDS011;48553;50.766;2.900;2023-04-15T03:42:44;4.32;;;2.00;;
60851;SDS011;48553;50.766;2.900;2023-04-15T03:45:45;4.05;;;2.30;;
60851;SDS011;48553;50.766;2.900;2023-04-15T03:48:45;5.35;;;2.20;;
60851;SDS011;48553;50.766;2.900;2023-04-15T03:51:46;3.42;;;2.10;;
60851;SDS011;48553;50.766;2.900;2023-04-15T03:54:46;3.53;;;2.10;;
60851;SDS011;48553;50.766;2.900;2023-04-15T03:57:47;3.90;;;2.08;;
60851;SDS011;48553;50.766;2.900;2023-04-15T04:00:47;4.10;;;2.15;;
60851;SDS011;48553;50.766;2.900;2023-04-15T04:03:48;5.40;;;2.10;;
60851;SDS011;48553;50.766;2.900;2023-04-15T04:06:48;4.80;;;2.10;;
60851;SDS011;48553;50.766;2.900;2023-04-15T04:09:48;3.80;;;2.30;;
60851;SDS011;48553;50.766;2.900;2023-04-15T04:12:49;4.03;;;2.45;;
60851;SDS011;48553;50.766;2.900;2023-04-15T04:15:50;5.63;;;2.40;;
60851;SDS011;48553;50.766;2.900;2023-04-15T04:18:50;5.25;;;2.38;;
60851;SDS011;48553;50.766;2.900;2023-04-15T04:21:51;4.28;;;2.60;;
60851;SDS011;48553;50.766;2.900;2023-04-15T04:24:51;6.63;;;2.72;;
60851;SDS011;48553;50.766;2.900;2023-04-15T04:27:52;6.53;;;3.20;;
60851;SDS011;48553;50.766;2.900;2023-04-15T04:30:52;4.78;;;2.80;;
60851;SDS011;48553;50.766;2.900;2023-04-15T04:33:53;5.85;;;3.03;;
60851;SDS011;48553;50.766;2.900;2023-04-15T04:36:53;5.55;;;3.08;;
60851;SDS011;48553;50.766;2.900;2023-04-15T04:39:53;6.90;;;3.83;;
60851;SDS011;48553;50.766;2.900;2023-04-15T04:42:54;8.60;;;3.83;;
60851;SDS011;48553;50.766;2.900;2023-04-15T04:45:54;5.53;;;3.53;;
60851;SDS011;48553;50.766;2.900;2023-04-15T04:48:55;7.22;;;4.40;;
60851;SDS011;48553;50.766;2.900;2023-04-15T04:51:55;8.05;;;4.57;;
60851;SDS011;48553;50.766;2.900;2023-04-15T04:54:56;9.20;;;5.03;;
60851;SDS011;48553;50.766;2.900;2023-04-15T04:57:57;8.77;;;4.82;;
60851;SDS011;48553;50.766;2.900;2023-04-15T05:00:57;10.00;;;5.05;;
60851;SDS011;48553;50.766;2.900;2023-04-15T05:03:58;10.15;;;5.53;;
60851;SDS011;48553;50.766;2.900;2023-04-15T05:06:59;7.97;;;5.22;;
60851;SDS011;48553;50.766;2.900;2023-04-15T05:09:59;9.35;;;6.03;;
60851;SDS011;48553;50.766;2.900;2023-04-15T05:13:00;12.07;;;6.35;;
60851;SDS011;48553;50.766;2.900;2023-04-15T05:16:01;12.48;;;6.78;;
60851;SDS011;48553;50.766;2.900;2023-04-15T05:19:01;10.60;;;6.00;;
60851;SDS011;48553;50.766;2.900;2023-04-15T05:22:01;10.73;;;5.68;;
60851;SDS011;48553;50.766;2.900;2023-04-15T05:25:02;9.35;;;6.03;;
60851;SDS011;48553;50.766;2.900;2023-04-15T05:28:03;11.95;;;5.85;;
60851;SDS011;48553;50.766;2.900;2023-04-15T05:31:03;10.48;;;5.78;;
60851;SDS011;48553;50.766;2.900;2023-04-15T05:34:05;9.05;;;5.60;;
60851;SDS011;48553;50.766;2.900;2023-04-15T05:37:06;9.68;;;5.40;;
60851;SDS011;48553;50.766;2.900;2023-04-15T05:40:06;11.93;;;5.55;;
60851;SDS011;48553;50.766;2.900;2023-04-15T05:43:09;9.63;;;5.20;;
60851;SDS011;48553;50.766;2.900;2023-04-15T05:46:10;7.25;;;4.63;;
60851;SDS011;48553;50.766;2.900;2023-04-15T05:49:10;8.98;;;4.75;;
60851;SDS011;48553;50.766;2.900;2023-04-15T05:52:11;7.45;;;4.55;;
60851;SDS011;48553;50.766;2.900;2023-04-15T05:55:11;7.18;;;4.30;;
60851;SDS011;48553;50.766;2.900;2023-04-15T05:58:11;7.78;;;3.97;;
60851;SDS011;48553;50.766;2.900;2023-04-15T06:01:12;6.57;;;4.10;;
60851;SDS011;48553;50.766;2.900;2023-04-15T06:04:12;9.10;;;4.50;;
60851;SDS011;48553;50.766;2.900;2023-04-15T06:07:13;8.45;;;4.28;;
60851;SDS011;48553;50.766;2.900;2023-04-15T06:10:14;7.10;;;4.70;;
60851;SDS011;48553;50.766;2.900;2023-04-15T06:13:15;7.43;;;4.50;;
60851;SDS011;48553;50.766;2.900;2023-04-15T06:16:16;10.00;;;5.15;;
60851;SDS011;48553;50.766;2.900;2023-04-15T06:19:16;9.50;;;5.70;;
60851;SDS011;48553;50.766;2.900;2023-04-15T06:22:17;10.50;;;5.80;;
60851;SDS011;48553;50.766;2.900;2023-04-15T06:25:17;11.27;;;6.47;;
60851;SDS011;48553;50.766;2.900;2023-04-15T06:28:18;12.45;;;6.43;;
60851;SDS011;48553;50.766;2.900;2023-04-15T06:31:18;11.60;;;6.72;;
60851;SDS011;48553;50.766;2.900;2023-04-15T06:34:19;13.15;;;6.90;;
60851;SDS011;48553;50.766;2.900;2023-04-15T06:37:19;12.02;;;6.90;;
60851;SDS011;48553;50.766;2.900;2023-04-15T06:40:20;13.50;;;7.28;;
60851;SDS011;48553;50.766;2.900;2023-04-15T06:43:20;11.95;;;7.57;;
60851;SDS011;48553;50.766;2.900;2023-04-15T06:46:21;12.55;;;7.70;;
60851;SDS011;48553;50.766;2.900;2023-04-15T06:49:22;15.40;;;7.45;;
60851;SDS011;48553;50.766;2.900;2023-04-15T06:52:22;13.27;;;7.50;;
60851;SDS011;48553;50.766;2.900;2023-04-15T06:55:22;14.65;;;7.47;;
60851;SDS011;48553;50.766;2.900;2023-04-15T06:58:23;14.48;;;7.68;;
60851;SDS011;48553;50.766;2.900;2023-04-15T07:01:23;15.07;;;7.97;;
60851;SDS011;48553;50.766;2.900;2023-04-15T07:04:24;12.93;;;7.43;;
60851;SDS011;48553;50.766;2.900;2023-04-15T07:07:24;14.57;;;7.38;;
60851;SDS011;48553;50.766;2.900;2023-04-15T07:10:25;13.00;;;7.55;;
60851;SDS011;48553;50.766;2.900;2023-04-15T07:13:25;13.82;;;7.20;;
60851;SDS011;48553;50.766;2.900;2023-04-15T07:16:26;14.00;;;7.40;;
60851;SDS011;48553;50.766;2.900;2023-04-15T07:19:27;13.60;;;7.30;;
60851;SDS011;48553;50.766;2.900;2023-04-15T07:22:27;13.50;;;6.70;;
60851;SDS011;48553;50.766;2.900;2023-04-15T07:25:28;13.00;;;7.05;;
60851;SDS011;48553;50.766;2.900;2023-04-15T07:28:28;13.73;;;6.85;;
60851;SDS011;48553;50.766;2.900;2023-04-15T07:31:28;16.30;;;6.55;;
60851;SDS011;48553;50.766;2.900;2023-04-15T07:34:29;10.82;;;6.03;;
60851;SDS011;48553;50.766;2.900;2023-04-15T07:37:29;11.52;;;5.93;;
60851;SDS011;48553;50.766;2.900;2023-04-15T07:40:30;12.40;;;5.80;;
60851;SDS011;48553;50.766;2.900;2023-04-15T07:43:31;11.95;;;5.85;;
60851;SDS011;48553;50.766;2.900;2023-04-15T07:46:31;11.65;;;6.00;;
60851;SDS011;48553;50.766;2.900;2023-04-15T07:49:32;10.40;;;5.80;;
60851;SDS011;48553;50.766;2.900;2023-04-15T07:52:32;10.65;;;5.72;;
60851;SDS011;48553;50.766;2.900;2023-04-15T07:55:38;11.32;;;6.18;;
60851;SDS011;48553;50.766;2.900;2023-04-15T07:58:39;12.75;;;6.03;;
60851;SDS011;48553;50.766;2.900;2023-04-15T08:01:40;12.77;;;5.60;;
60851;SDS011;48553;50.766;2.900;2023-04-15T08:04:41;12.18;;;5.68;;
60851;SDS011;48553;50.766;2.900;2023-04-15T08:07:42;9.10;;;5.13;;
60851;SDS011;48553;50.766;2.900;2023-04-15T08:10:42;9.32;;;4.80;;
60851;SDS011;48553;50.766;2.900;2023-04-15T08:13:42;11.05;;;4.97;;
60851;SDS011;48553;50.766;2.900;2023-04-15T08:16:43;9.18;;;4.30;;
60851;SDS011;48553;50.766;2.900;2023-04-15T08:19:43;8.88;;;4.57;;
60851;SDS011;48553;50.766;2.900;2023-04-15T08:22:44;9.02;;;4.63;;
60851;SDS011;48553;50.766;2.900;2023-04-15T08:25:45;10.18;;;4.32;;
60851;SDS011;48553;50.766;2.900;2023-04-15T08:28:45;8.23;;;4.47;;
60851;SDS011;48553;50.766;2.900;2023-04-15T08:31:46;9.43;;;4.50;;
60851;SDS011;48553;50.766;2.900;2023-04-15T08:34:47;8.98;;;4.85;;
60851;SDS011;48553;50.766;2.900;2023-04-15T08:37:47;8.80;;;5.00;;
60851;SDS011;48553;50.766;2.900;2023-04-15T08:40:48;10.07;;;4.90;;
60851;SDS011;48553;50.766;2.900;2023-04-15T08:43:53;10.60;;;5.05;;
60851;SDS011;48553;50.766;2.900;2023-04-15T08:46:53;11.13;;;5.40;;
60851;SDS011;48553;50.766;2.900;2023-04-15T08:49:56;10.88;;;4.97;;
60851;SDS011;48553;50.766;2.900;2023-04-15T08:52:58;10.38;;;5.22;;
60851;SDS011;48553;50.766;2.900;2023-04-15T08:55:58;10.05;;;5.20;;
60851;SDS011;48553;50.766;2.900;2023-04-15T08:59:04;9.55;;;5.15;;
60851;SDS011;48553;50.766;2.900;2023-04-15T09:02:06;10.57;;;5.05;;
60851;SDS011;48553;50.766;2.900;2023-04-15T09:05:08;9.65;;;4.85;;
60851;SDS011;48553;50.766;2.900;2023-04-15T09:08:08;9.05;;;4.78;;
60851;SDS011;48553;50.766;2.900;2023-04-15T09:11:09;9.45;;;4.93;;
60851;SDS011;48553;50.766;2.900;2023-04-15T09:14:10;8.98;;;4.30;;
60851;SDS011;48553;50.766;2.900;2023-04-15T09:17:10;9.30;;;4.60;;
60851;SDS011;48553;50.766;2.900;2023-04-15T09:20:14;10.43;;;4.47;;
60851;SDS011;48553;50.766;2.900;2023-04-15T09:23:15;8.43;;;4.40;;
60851;SDS011;48553;50.766;2.900;2023-04-15T09:26:16;6.20;;;3.80;;
60851;SDS011;48553;50.766;2.900;2023-04-15T09:29:17;10.43;;;3.97;;
60851;SDS011;48553;50.766;2.900;2023-04-15T09:32:17;7.07;;;4.15;;
60851;SDS011;48553;50.766;2.900;2023-04-15T09:35:20;9.15;;;3.83;;
60851;SDS011;48553;50.766;2.900;2023-04-15T09:38:21;8.48;;;4.13;;
60851;SDS011;48553;50.766;2.900;2023-04-15T09:41:22;7.07;;;4.00;;
60851;SDS011;48553;50.766;2.900;2023-04-15T09:44:23;6.47;;;4.00;;
60851;SDS011;48553;50.766;2.900;2023-04-15T09:47:29;6.55;;;4.20;;
60851;SDS011;48553;50.766;2.900;2023-04-15T09:50:30;9.93;;;4.20;;
60851;SDS011;48553;50.766;2.900;2023-04-15T09:53:40;8.48;;;4.82;;
60851;SDS011;48553;50.766;2.900;2023-04-15T09:56:40;8.80;;;4.90;;
60851;SDS011;48553;50.766;2.900;2023-04-15T09:59:41;8.93;;;4.82;;
60851;SDS011;48553;50.766;2.900;2023-04-15T10:02:41;9.40;;;5.22;;
60851;SDS011;48553;50.766;2.900;2023-04-15T10:05:42;9.93;;;6.05;;
60851;SDS011;48553;50.766;2.900;2023-04-15T10:08:43;13.63;;;6.95;;
60851;SDS011;48553;50.766;2.900;2023-04-15T10:11:45;10.80;;;6.60;;
60851;SDS011;48553;50.766;2.900;2023-04-15T10:14:51;12.90;;;7.18;;
60851;SDS011;48553;50.766;2.900;2023-04-15T10:17:55;12.55;;;7.90;;
60851;SDS011;48553;50.766;2.900;2023-04-15T10:20:59;12.73;;;7.43;;
60851;SDS011;48553;50.766;2.900;2023-04-15T10:24:00;13.93;;;7.45;;
60851;SDS011;48553;50.766;2.900;2023-04-15T10:27:02;13.48;;;7.45;;
60851;SDS011;48553;50.766;2.900;2023-04-15T10:30:05;11.80;;;7.50;;
60851;SDS011;48553;50.766;2.900;2023-04-15T10:33:05;12.35;;;7.30;;
60851;SDS011;48553;50.766;2.900;2023-04-15T10:36:08;13.10;;;7.45;;
60851;SDS011;48553;50.766;2.900;2023-04-15T10:42:34;15.40;;;7.63;;
60851;SDS011;48553;50.766;2.900;2023-04-15T10:45:35;10.45;;;6.82;;
60851;SDS011;48553;50.766;2.900;2023-04-15T10:48:36;12.70;;;6.82;;
60851;SDS011;48553;50.766;2.900;2023-04-15T10:51:38;12.57;;;6.90;;
60851;SDS011;48553;50.766;2.900;2023-04-15T10:54:41;10.52;;;6.40;;
60851;SDS011;48553;50.766;2.900;2023-04-15T10:57:41;10.35;;;6.85;;
60851;SDS011;48553;50.766;2.900;2023-04-15T11:00:43;11.43;;;6.72;;
60851;SDS011;48553;50.766;2.900;2023-04-15T11:03:52;12.45;;;6.80;;
60851;SDS011;48553;50.766;2.900;2023-04-15T11:07:04;13.02;;;7.07;;
60851;SDS011;48553;50.766;2.900;2023-04-15T11:13:24;12.45;;;7.88;;
60851;SDS011;48553;50.766;2.900;2023-04-15T11:16:27;13.57;;;8.50;;
60851;SDS011;48553;50.766;2.900;2023-04-15T11:19:34;14.02;;;8.63;;
60851;SDS011;48553;50.766;2.900;2023-04-15T11:22:35;14.80;;;8.88;;
60851;SDS011;48553;50.766;2.900;2023-04-15T11:25:36;15.05;;;8.85;;
60851;SDS011;48553;50.766;2.900;2023-04-15T11:28:38;16.38;;;9.00;;
60851;SDS011;48553;50.766;2.900;2023-04-15T11:31:40;14.65;;;9.27;;
60851;SDS011;48553;50.766;2.900;2023-04-15T11:34:40;12.70;;;8.25;;
60851;SDS011;48553;50.766;2.900;2023-04-15T11:37:41;15.40;;;9.20;;
60851;SDS011;48553;50.766;2.900;2023-04-15T11:40:42;16.60;;;9.70;;
60851;SDS011;48553;50.766;2.900;2023-04-15T11:43:43;15.85;;;9.57;;
60851;SDS011;48553;50.766;2.900;2023-04-15T11:46:43;13.98;;;8.77;;
60851;SDS011;48553;50.766;2.900;2023-04-15T11:49:44;14.25;;;9.02;;
60851;SDS011;48553;50.766;2.900;2023-04-15T11:55:58;14.35;;;9.40;;
60851;SDS011;48553;50.766;2.900;2023-04-15T11:58:58;15.02;;;9.07;;
60851;SDS011;48553;50.766;2.900;2023-04-15T12:01:59;13.00;;;8.13;;
60851;SDS011;48553;50.766;2.900;2023-04-15T12:05:03;12.57;;;8.27;;
60851;SDS011;48553;50.766;2.900;2023-04-15T12:11:05;13.13;;;7.28;;
60851;SDS011;48553;50.766;2.900;2023-04-15T12:14:09;12.07;;;7.05;;
60851;SDS011;48553;50.766;2.900;2023-04-15T12:17:15;12.35;;;8.05;;
60851;SDS011;48553;50.766;2.900;2023-04-15T12:20:25;14.68;;;8.43;;
60851;SDS011;48553;50.766;2.900;2023-04-15T12:23:26;9.95;;;6.90;;
60851;SDS011;48553;50.766;2.900;2023-04-15T12:26:46;10.85;;;7.05;;
60851;SDS011;48553;50.766;2.900;2023-04-15T12:29:48;14.18;;;8.55;;
60851;SDS011;48553;50.766;2.900;2023-04-15T12:32:48;10.32;;;6.43;;
60851;SDS011;48553;50.766;2.900;2023-04-15T12:35:50;9.73;;;6.72;;
60851;SDS011;48553;50.766;2.900;2023-04-15T12:38:51;12.13;;;7.28;;
60851;SDS011;48553;50.766;2.900;2023-04-15T12:41:51;11.02;;;6.10;;
60851;SDS011;48553;50.766;2.900;2023-04-15T12:44:52;10.73;;;6.00;;
60851;SDS011;48553;50.766;2.900;2023-04-15T12:47:52;11.38;;;6.50;;
60851;SDS011;48553;50.766;2.900;2023-04-15T12:50:53;11.00;;;6.30;;
60851;SDS011;48553;50.766;2.900;2023-04-15T12:53:53;8.63;;;5.50;;
60851;SDS011;48553;50.766;2.900;2023-04-15T12:56:54;9.77;;;5.50;;
60851;SDS011;48553;50.766;2.900;2023-04-15T12:59:54;10.70;;;6.45;;
60851;SDS011;48553;50.766;2.900;2023-04-15T13:02:55;10.55;;;6.20;;
60851;SDS011;48553;50.766;2.900;2023-04-15T13:05:56;9.98;;;6.13;;
60851;SDS011;48553;50.766;2.900;2023-04-15T13:08:56;12.18;;;7.03;;
60851;SDS011;48553;50.766;2.900;2023-04-15T13:11:58;11.77;;;6.65;;
60851;SDS011;48553;50.766;2.900;2023-04-15T13:14:58;10.63;;;6.60;;
60851;SDS011;48553;50.766;2.900;2023-04-15T13:17:59;9.55;;;6.13;;
60851;SDS011;48553;50.766;2.900;2023-04-15T13:21:00;7.70;;;5.72;;
60851;SDS011;48553;50.766;2.900;2023-04-15T13:24:01;9.02;;;5.40;;
60851;SDS011;48553;50.766;2.900;2023-04-15T13:27:01;9.23;;;5.32;;
60851;SDS011;48553;50.766;2.900;2023-04-15T13:30:04;8.50;;;5.15;;
60851;SDS011;48553;50.766;2.900;2023-04-15T13:33:05;11.48;;;5.40;;
60851;SDS011;48553;50.766;2.900;2023-04-15T13:36:05;8.10;;;4.55;;
60851;SDS011;48553;50.766;2.900;2023-04-15T13:39:06;9.82;;;5.82;;
60851;SDS011;48553;50.766;2.900;2023-04-15T13:42:06;8.70;;;5.35;;
60851;SDS011;48553;50.766;2.900;2023-04-15T13:45:07;10.18;;;6.05;;
60851;SDS011;48553;50.766;2.900;2023-04-15T13:48:07;10.55;;;5.78;;
60851;SDS011;48553;50.766;2.900;2023-04-15T13:51:08;11.43;;;6.20;;
60851;SDS011;48553;50.766;2.900;2023-04-15T13:54:08;12.85;;;6.40;;
60851;SDS011;48553;50.766;2.900;2023-04-15T13:57:09;12.35;;;7.40;;
60851;SDS011;48553;50.766;2.900;2023-04-15T14:00:09;11.95;;;6.75;;
60851;SDS011;48553;50.766;2.900;2023-04-15T14:03:10;10.63;;;6.95;;
60851;SDS011;48553;50.766;2.900;2023-04-15T14:06:11;9.90;;;6.63;;
60851;SDS011;48553;50.766;2.900;2023-04-15T14:09:11;8.77;;;6.28;;
60851;SDS011;48553;50.766;2.900;2023-04-15T14:12:12;12.35;;;6.63;;
60851;SDS011;48553;50.766;2.900;2023-04-15T14:15:12;11.55;;;7.07;;
60851;SDS011;48553;50.766;2.900;2023-04-15T14:18:13;10.50;;;6.50;;
60851;SDS011;48553;50.766;2.900;2023-04-15T14:21:13;11.07;;;6.70;;
60851;SDS011;48553;50.766;2.900;2023-04-15T14:24:14;9.35;;;6.28;;
60851;SDS011;48553;50.766;2.900;2023-04-15T14:27:14;11.25;;;6.38;;
60851;SDS011;48553;50.766;2.900;2023-04-15T14:30:16;10.60;;;6.82;;
60851;SDS011;48553;50.766;2.900;2023-04-15T14:33:16;12.40;;;6.15;;
60851;SDS011;48553;50.766;2.900;2023-04-15T14:36:16;10.70;;;6.22;;
60851;SDS011;48553;50.766;2.900;2023-04-15T14:39:17;9.60;;;6.15;;
60851;SDS011;48553;50.766;2.900;2023-04-15T14:42:18;8.63;;;5.35;;
60851;SDS011;48553;50.766;2.900;2023-04-15T14:45:18;10.85;;;6.03;;
60851;SDS011;48553;50.766;2.900;2023-04-15T14:48:18;10.77;;;5.93;;
60851;SDS011;48553;50.766;2.900;2023-04-15T14:51:19;9.57;;;5.25;;
60851;SDS011;48553;50.766;2.900;2023-04-15T14:54:19;9.13;;;5.47;;
60851;SDS011;48553;50.766;2.900;2023-04-15T14:57:20;10.15;;;5.10;;
60851;SDS011;48553;50.766;2.900;2023-04-15T15:00:20;11.38;;;6.95;;
60851;SDS011;48553;50.766;2.900;2023-04-15T15:03:21;10.13;;;5.60;;
60851;SDS011;48553;50.766;2.900;2023-04-15T15:06:22;11.90;;;5.75;;
60851;SDS011;48553;50.766;2.900;2023-04-15T15:09:22;12.95;;;6.35;;
60851;SDS011;48553;50.766;2.900;2023-04-15T15:12:24;10.23;;;5.43;;
60851;SDS011;48553;50.766;2.900;2023-04-15T15:15:24;10.75;;;6.00;;
60851;SDS011;48553;50.766;2.900;2023-04-15T15:18:24;8.63;;;4.80;;
60851;SDS011;48553;50.766;2.900;2023-04-15T15:21:25;9.75;;;5.40;;
60851;SDS011;48553;50.766;2.900;2023-04-15T15:24:26;11.25;;;5.65;;
60851;SDS011;48553;50.766;2.900;2023-04-15T15:27:26;9.25;;;4.75;;
60851;SDS011;48553;50.766;2.900;2023-04-15T15:30:26;8.48;;;4.50;;
60851;SDS011;48553;50.766;2.900;2023-04-15T15:33:27;8.13;;;3.92;;
60851;SDS011;48553;50.766;2.900;2023-04-15T15:36:28;8.40;;;4.43;;
60851;SDS011;48553;50.766;2.900;2023-04-15T15:39:30;9.50;;;4.10;;
60851;SDS011;48553;50.766;2.900;2023-04-15T15:42:30;6.80;;;2.85;;
60851;SDS011;48553;50.766;2.900;2023-04-15T15:45:31;7.78;;;3.53;;
60851;SDS011;48553;50.766;2.900;2023-04-15T15:48:32;6.10;;;3.30;;
60851;SDS011;48553;50.766;2.900;2023-04-15T15:51:32;5.18;;;2.70;;
60851;SDS011;48553;50.766;2.900;2023-04-15T15:54:33;7.53;;;3.47;;
60851;SDS011;48553;50.766;2.900;2023-04-15T15:57:33;9.35;;;2.92;;
60851;SDS011;48553;50.766;2.900;2023-04-15T16:00:34;7.10;;;2.70;;
60851;SDS011;48553;50.766;2.900;2023-04-15T16:03:34;4.75;;;2.65;;
60851;SDS011;48553;50.766;2.900;2023-04-15T16:06:35;5.15;;;2.35;;
60851;SDS011;48553;50.766;2.900;2023-04-15T16:09:35;5.07;;;2.00;;
60851;SDS011;48553;50.766;2.900;2023-04-15T16:12:36;5.70;;;1.70;;
60851;SDS011;48553;50.766;2.900;2023-04-15T16:15:36;4.85;;;1.90;;
60851;SDS011;48553;50.766;2.900;2023-04-15T16:18:36;5.72;;;2.10;;
60851;SDS011;48553;50.766;2.900;2023-04-15T16:21:37;3.90;;;1.83;;
60851;SDS011;48553;50.766;2.900;2023-04-15T16:24:37;5.22;;;1.98;;
60851;SDS011;48553;50.766;2.900;2023-04-15T16:27:38;6.28;;;2.50;;
60851;SDS011;48553;50.766;2.900;2023-04-15T16:30:38;4.82;;;2.28;;
60851;SDS011;48553;50.766;2.900;2023-04-15T16:33:40;4.28;;;2.20;;
60851;SDS011;48553;50.766;2.900;2023-04-15T16:36:40;4.82;;;2.20;;
60851;SDS011;48553;50.766;2.900;2023-04-15T16:39:41;3.60;;;1.77;;
60851;SDS011;48553;50.766;2.900;2023-04-15T16:42:41;6.68;;;2.13;;
60851;SDS011;48553;50.766;2.900;2023-04-15T16:45:42;5.47;;;2.17;;
60851;SDS011;48553;50.766;2.900;2023-04-15T16:48:44;5.10;;;1.80;;
60851;SDS011;48553;50.766;2.900;2023-04-15T16:51:45;4.72;;;1.77;;
60851;SDS011;48553;50.766;2.900;2023-04-15T16:54:45;4.13;;;1.85;;
60851;SDS011;48553;50.766;2.900;2023-04-15T16:57:45;5.90;;;1.75;;
60851;SDS011;48553;50.766;2.900;2023-04-15T17:00:46;5.72;;;1.70;;
60851;SDS011;48553;50.766;2.900;2023-04-15T17:03:46;3.78;;;1.58;;
60851;SDS011;48553;50.766;2.900;2023-04-15T17:06:47;4.95;;;1.75;;
60851;SDS011;48553;50.766;2.900;2023-04-15T17:09:47;3.55;;;1.60;;
60851;SDS011;48553;50.766;2.900;2023-04-15T17:12:49;5.60;;;1.95;;
60851;SDS011;48553;50.766;2.900;2023-04-15T17:15:51;5.13;;;1.63;;
60851;SDS011;48553;50.766;2.900;2023-04-15T17:18:51;5.72;;;1.80;;
60851;SDS011;48553;50.766;2.900;2023-04-15T17:21:52;3.90;;;1.60;;
60851;SDS011;48553;50.766;2.900;2023-04-15T17:24:52;5.72;;;1.50;;
60851;SDS011;48553;50.766;2.900;2023-04-15T17:27:53;4.53;;;1.40;;
60851;SDS011;48553;50.766;2.900;2023-04-15T17:30:53;5.10;;;1.60;;
60851;SDS011;48553;50.766;2.900;2023-04-15T17:33:54;6.10;;;1.73;;
60851;SDS011;48553;50.766;2.900;2023-04-15T17:36:54;3.65;;;1.70;;
60851;SDS011;48553;50.766;2.900;2023-04-15T17:39:55;3.97;;;1.42;;
60851;SDS011;48553;50.766;2.900;2023-04-15T17:42:56;5.75;;;1.85;;
60851;SDS011;48553;50.766;2.900;2023-04-15T17:45:57;5.90;;;2.10;;
60851;SDS011;48553;50.766;2.900;2023-04-15T17:48:57;4.85;;;1.95;;
60851;SDS011;48553;50.766;2.900;2023-04-15T17:51:58;6.43;;;1.95;;
60851;SDS011;48553;50.766;2.900;2023-04-15T17:54:59;4.55;;;1.80;;
60851;SDS011;48553;50.766;2.900;2023-04-15T17:57:59;5.43;;;1.77;;
60851;SDS011;48553;50.766;2.900;2023-04-15T18:01:00;4.88;;;1.80;;
60851;SDS011;48553;50.766;2.900;2023-04-15T18:04:00;4.18;;;1.67;;
60851;SDS011;48553;50.766;2.900;2023-04-15T18:07:01;5.07;;;1.80;;
60851;SDS011;48553;50.766;2.900;2023-04-15T18:10:01;4.05;;;1.75;;
60851;SDS011;48553;50.766;2.900;2023-04-15T18:13:02;5.32;;;1.80;;
60851;SDS011;48553;50.766;2.900;2023-04-15T18:16:03;6.07;;;2.00;;
60851;SDS011;48553;50.766;2.900;2023-04-15T18:19:05;6.05;;;2.45;;
60851;SDS011;48553;50.766;2.900;2023-04-15T18:22:05;5.03;;;1.77;;